Time;durP1;ratioP1;P1;durP2;ratioP2;P2;SDS_P1;SDS_P2;PMS_P1;PMS_P2;Temp;Humidity;BMP_temperature;BMP_pressure;BME280_temperature;BME280_humidity;BME280_pressure;Samples;Min_cycle;Max_cycle;Signal;HPM_P1;HPM_P2
2023/12/03 00:02:00;;;;;;;9.60;5.10;;;;;;;9.36;89.63;99222.27;106054;1259;59920;-81
2023/12/03 00:04:41;;;;;;;11.50;5.50;;;;;;;9.38;89.73;99230.85;106015;1256;60537;-80
2023/12/03 00:07:21;;;;;;;13.30;5.70;;;;;;;9.19;91.16;99230.42;106095;1257;73949;-81
2023/12/03 00:09:49;;;;;;;8.70;4.70;;;;;;;9.19;91.40;99227.32;106076;1256;68742;-81
2023/12/03 00:12:30;;;;;;;12.80;5.70;;;;;;;9.21;91.27;99217.80;105939;1259;71465;-80
2023/12/03 00:15:11;;;;;;;11.20;5.10;;;;;;;9.18;91.46;99221.06;106095;1256;60438;-79
2023/12/03 00:17:51;;;;;;;14.60;6.10;;;;;;;9.18;91.57;99229.08;106104;1256;60409;-80
2023/12/03 00:20:19;;;;;;;27.90;9.60;;;;;;;9.21;91.60;99236.88;105955;1256;72550;-80
2023/12/03 00:22:59;;;;;;;11.90;5.60;;;;;;;9.26;91.23;99232.16;105971;1260;67338;-80
2023/12/03 00:25:39;;;;;;;12.10;5.70;;;;;;;9.15;92.12;99225.86;105974;1256;72435;-80
2023/12/03 00:28:19;;;;;;;12.50;6.10;;;;;;;9.29;91.18;99220.42;106078;1256;60353;-80
2023/12/03 12:31:26;;;;;;;19.40;8.90;;;;;;;8.37;52.77;100113.46;106423;1258;60417;-89
2023/12/03 12:34:07;;;;;;;15.60;8.30;;;;;;;8.44;52.04;100121.00;106551;1254;60406;-90
2023/12/03 12:36:48;;;;;;;18.50;9.20;;;;;;;8.54;52.08;100126.06;106625;1259;77612;-86
2023/12/03 12:39:30;;;;;;;18.20;9.10;;;;;;;8.60;51.90;100135.15;106837;1254;68840;-86
2023/12/03 12:41:58;;;;;;;18.60;8.60;;;;;;;8.67;51.51;100151.76;106519;1259;72688;-85
2023/12/03 12:44:48;;;;;;;17.70;8.80;;;;;;;8.57;51.41;100156.02;106661;1254;60934;-89
2023/12/03 12:47:28;;;;;;;19.10;9.20;;;;;;;8.44;51.76;100163.27;106966;1254;60358;-90
2023/12/03 12:50:08;;;;;;;20.50;8.60;;;;;;;8.49;51.57;100173.98;106426;1254;72649;-85
2023/12/03 12:52:36;;;;;;;14.60;7.90;;;;;;;8.46;51.66;100183.58;106605;1253;70430;-90
2023/12/03 12:55:16;;;;;;;13.70;7.20;;;;;;;8.30;51.75;100187.56;106351;1260;72680;-89
2023/12/03 12:58:02;;;;;;;14.60;7.90;;;;;;;8.08;51.49;100199.55;106362;1254;60533;-85
2023/12/03 13:00:42;;;;;;;16.50;8.10;;;;;;;8.05;51.02;100205.86;106356;1255;60473;-86
2023/12/03 13:03:16;;;;;;;12.70;6.90;;;;;;;8.03;50.79;100221.09;106221;1258;74455;-86
2023/12/03 13:05:56;;;;;;;10.60;5.90;;;;;;;7.97;50.90;100229.95;106197;1260;70167;-85
2023/12/03 13:08:36;;;;;;;12.00;6.20;;;;;;;7.87;50.14;100235.23;106283;1260;75288;-86
2023/12/03 13:11:10;;;;;;;11.30;5.90;;;;;;;7.77;49.47;100240.10;106296;1254;60475;-85
2023/12/03 13:13:43;;;;;;;12.10;6.80;;;;;;;7.73;49.70;100247.64;106444;1253;60414;-89
2023/12/03 13:16:23;;;;;;;17.40;9.30;;;;;;;7.65;49.48;100252.40;106381;1259;73873;-85
2023/12/03 13:19:04;;;;;;;21.00;10.50;;;;;;;7.58;49.41;100248.62;106305;1254;71542;-85
2023/12/03 13:21:38;;;;;;;17.30;9.30;;;;;;;7.54;49.43;100243.05;106401;1253;70439;-86
2023/12/03 13:24:12;;;;;;;15.30;8.90;;;;;;;7.57;49.52;100242.79;106383;1260;60405;-86
2023/12/03 13:27:03;;;;;;;13.40;6.90;;;;;;;7.56;49.89;100250.95;106241;1254;60451;-86
2023/12/03 13:29:43;;;;;;;12.00;6.70;;;;;;;7.42;50.53;100259.89;106201;1254;74157;-89
2023/12/03 13:32:17;;;;;;;13.50;7.30;;;;;;;7.34;51.12;100264.46;106481;1254;68387;-89
2023/12/03 13:34:51;;;;;;;13.40;7.50;;;;;;;7.24;51.38;100275.27;106394;1254;71381;-86
2023/12/03 13:37:32;;;;;;;13.60;7.40;;;;;;;7.23;50.56;100268.69;106236;1254;60565;-89
2023/12/03 13:40:13;;;;;;;14.50;7.50;;;;;;;7.10;50.85;100279.20;106469;1254;60362;-87
2023/12/03 13:42:53;;;;;;;15.30;8.10;;;;;;;7.11;51.12;100287.45;106461;1253;72053;-86
2023/12/03 13:45:27;;;;;;;14.40;7.80;;;;;;;7.12;50.97;100291.27;106817;1255;68397;-89
2023/12/03 13:48:07;;;;;;;11.80;6.90;;;;;;;7.22;50.62;100302.92;107990;1253;74807;-87
2023/12/03 13:50:47;;;;;;;13.70;7.90;;;;;;;7.27;50.37;100311.11;106536;1253;60341;-87
2023/12/03 13:53:21;;;;;;;13.90;7.40;;;;;;;7.35;50.72;100313.51;106524;1253;60345;-90
2023/12/03 13:55:56;;;;;;;16.60;8.30;;;;;;;7.38;50.44;100315.92;106341;1257;76009;-87
2023/12/03 13:58:35;;;;;;;15.80;8.10;;;;;;;7.24;51.04;100326.25;106474;1253;66871;-88
2023/12/03 14:01:15;;;;;;;14.20;7.50;;;;;;;7.31;51.08;100330.23;106475;1258;73783;-87
2023/12/03 14:03:49;;;;;;;14.20;7.30;;;;;;;7.27;50.69;100342.27;106606;1257;61768;-90
2023/12/03 14:06:23;;;;;;;12.70;7.20;;;;;;;7.24;50.77;100353.10;106491;1257;62185;-90
2023/12/03 14:09:07;;;;;;;16.10;8.10;;;;;;;7.36;50.62;100358.47;106471;1253;74326;-87
2023/12/03 14:11:49;;;;;;;12.80;6.80;;;;;;;7.41;50.27;100363.73;106356;1259;69757;-90
2023/12/03 14:14:23;;;;;;;13.50;7.50;;;;;;;7.53;49.61;100370.13;106426;1254;71549;-87
2023/12/03 14:17:04;;;;;;;12.90;7.00;;;;;;;7.45;49.70;100378.44;106388;1254;60422;-89
2023/12/03 14:19:44;;;;;;;16.00;7.60;;;;;;;7.42;49.63;100384.92;106370;1258;60844;-90
2023/12/03 14:22:23;;;;;;;14.40;7.40;;;;;;;7.39;49.51;100384.70;106454;1254;73893;-90
2023/12/03 14:25:03;;;;;;;12.30;6.50;;;;;;;7.27;49.19;100398.69;106475;1253;67117;-91
2023/12/03 14:27:45;;;;;;;9.70;6.20;;;;;;;7.17;49.15;100400.88;106590;1254;72643;-88
2023/12/03 14:30:25;;;;;;;11.60;6.20;;;;;;;7.10;49.56;100407.02;106561;1254;62308;-88
2023/12/03 14:33:06;;;;;;;12.80;6.20;;;;;;;7.25;49.45;100412.81;106566;1253;60446;-88
2023/12/03 14:35:45;;;;;;;12.60;7.30;;;;;;;7.10;49.89;100410.44;106461;1254;72696;-89
2023/12/03 14:38:25;;;;;;;10.90;5.90;;;;;;;7.00;50.01;100413.45;106450;1259;67085;-88
2023/12/03 14:41:05;;;;;;;11.00;6.80;;;;;;;6.98;50.32;100423.67;106399;1254;72851;-88
2023/12/03 14:43:45;;;;;;;12.20;5.90;;;;;;;6.95;50.43;100427.88;106362;1254;60504;-86
2023/12/03 14:46:25;;;;;;;12.30;6.10;;;;;;;6.93;50.27;100443.89;106628;1253;59356;-87
2023/12/03 14:49:08;;;;;;;11.10;5.90;;;;;;;7.01;50.32;100452.52;106543;1254;74877;-86
2023/12/03 14:51:48;;;;;;;13.20;6.80;;;;;;;7.02;50.35;100461.86;108160;1254;71335;-87
2023/12/03 14:54:28;;;;;;;14.70;6.60;;;;;;;7.04;50.44;100469.94;106371;1257;72770;-86
2023/12/03 14:57:08;;;;;;;11.60;6.00;;;;;;;7.11;50.03;100462.71;106512;1259;60515;-87
2023/12/03 14:59:48;;;;;;;14.20;5.80;;;;;;;7.27;49.84;100467.67;106428;1255;60345;-87
2023/12/03 15:02:28;;;;;;;14.60;7.10;;;;;;;7.23;49.56;100471.33;106714;1254;73752;-85
2023/12/03 15:05:09;;;;;;;10.50;6.10;;;;;;;7.28;49.71;100475.73;106982;1253;70282;-85
2023/12/03 15:07:50;;;;;;;12.40;6.30;;;;;;;7.26;49.89;100482.40;106841;1254;72771;-85
2023/12/03 15:10:30;;;;;;;12.40;6.10;;;;;;;7.26;50.01;100486.45;106455;1254;60547;-85
2023/12/03 15:13:11;;;;;;;12.50;7.10;;;;;;;7.16;50.26;100485.66;106695;1253;60737;-86
2023/12/03 15:15:51;;;;;;;10.90;5.70;;;;;;;7.09;50.40;100485.05;106397;1253;72660;-86
2023/12/03 15:18:31;;;;;;;10.10;5.60;;;;;;;7.12;50.42;100490.66;106430;1254;71457;-86
2023/12/03 15:21:11;;;;;;;12.10;6.50;;;;;;;7.18;50.14;100497.31;106563;1257;75443;-86
2023/12/03 15:23:51;;;;;;;10.60;6.70;;;;;;;7.28;50.06;100499.59;106489;1253;60519;-86
2023/12/03 15:26:31;;;;;;;15.80;7.40;;;;;;;7.27;50.17;100502.41;106553;1253;60552;-86
2023/12/03 15:29:11;;;;;;;11.80;6.40;;;;;;;7.35;50.06;100504.77;106619;1253;73498;-86
2023/12/03 15:31:51;;;;;;;11.20;6.40;;;;;;;7.26;50.17;100512.34;106351;1259;67376;-86
2023/12/03 15:34:31;;;;;;;10.80;6.20;;;;;;;7.27;50.44;100520.89;106380;1255;72364;-85
2023/12/03 15:37:12;;;;;;;10.20;6.20;;;;;;;7.27;50.35;100528.34;106574;1253;63113;-86
2023/12/03 15:39:51;;;;;;;10.10;5.50;;;;;;;7.27;50.34;100529.81;106647;1253;60540;-86
2023/12/03 15:42:31;;;;;;;12.40;5.90;;;;;;;7.21;50.42;100532.79;106361;1254;74155;-86
2023/12/03 15:45:15;;;;;;;9.60;5.50;;;;;;;7.13;50.65;100537.53;106448;1257;70482;-86
2023/12/03 15:47:56;;;;;;;12.30;6.30;;;;;;;7.09;51.18;100543.52;106316;1253;71434;-86
2023/12/03 15:50:36;;;;;;;11.00;6.10;;;;;;;7.16;50.59;100547.98;106576;1254;61582;-86
2023/12/03 15:53:16;;;;;;;13.20;6.50;;;;;;;7.24;50.55;100544.77;106562;1259;61113;-85
2023/12/03 15:55:56;;;;;;;10.50;5.20;;;;;;;7.39;50.14;100552.89;106253;1254;75245;-85
2023/12/03 15:58:36;;;;;;;9.90;5.30;;;;;;;7.43;49.77;100550.80;106409;1253;69667;-86
2023/12/03 16:01:16;;;;;;;11.80;6.40;;;;;;;7.45;49.79;100556.59;106520;1253;72518;-86
2023/12/03 16:03:56;;;;;;;11.20;6.10;;;;;;;7.36;49.43;100558.71;106362;1254;60320;-85
2023/12/03 16:06:36;;;;;;;10.50;5.50;;;;;;;7.42;48.98;100555.02;106570;1253;62269;-85
2023/12/03 16:09:16;;;;;;;10.40;5.60;;;;;;;7.45;48.89;100560.77;106509;1254;75052;-86
2023/12/03 16:11:57;;;;;;;11.30;6.30;;;;;;;7.35;48.96;100559.35;106426;1254;69799;-86
2023/12/03 16:14:36;;;;;;;10.60;5.50;;;;;;;7.34;48.96;100569.19;106469;1253;73520;-86
2023/12/03 16:17:16;;;;;;;11.40;5.70;;;;;;;7.19;49.57;100577.92;106634;1253;61496;-86
2023/12/03 16:20:02;;;;;;;10.50;5.60;;;;;;;7.01;49.86;100592.60;106456;1254;62249;-86
2023/12/03 16:22:42;;;;;;;11.20;6.40;;;;;;;7.09;49.96;100598.63;106478;1254;76327;-86
2023/12/03 16:25:22;;;;;;;9.70;5.70;;;;;;;7.24;49.80;100595.27;106468;1258;69980;-86
2023/12/03 16:28:03;;;;;;;10.10;5.50;;;;;;;7.27;49.73;100598.54;106329;1253;74310;-85
